Decoded Metar for LIBC (CROTONE in ITALY) (IATA:CRV) | Meteo·Mobile Aviation Weather
aviador You're here:

LIBC Decoded Metar

CROTONE in ITALY
Report Time2018-10-23 11:10:00
UTC Time2018-10-23 11:19:30
Flight Rules ifr IFR
Wind340° at 12 kt
W.Decomp.*RWY 35: 11.7 kt HW 2.7 kt LCW
W.Rank340° ranks 13
Current wind is above 340° avg. (8.7)
Visibility2000 m
Phenomena:Heavy Rain
Clouds:Broken 008 Hf
Ceiling800 ft
Temp15°C (ISA +1)
Dew Point15°C (100% RH)
AAT12.3°C
QNH1013 hPa
Density Alt883 ft
Elevation528 ft
Report Wrong Elevation
Raw Report
LIBC 231110Z 34012KT 2000 +RA BKN008 15/15 Q1013=

Extra information for LIBC:More info

Metar Taf Metar & Taf Last 4 Metars F.Rules Stats Wind Profile Meteogram Temp Stats Airport Information Weather charts Add Link Nearby VenuesMetar ALERT Operation Metar Decoded Social comments